createdAt,value
2023-04-20T00:00:59.857Z,984.31
2023-04-20T00:01:59.938Z,984.34
2023-04-20T00:02:59.973Z,984.27
2023-04-20T00:04:00.094Z,984.26
2023-04-20T00:04:59.878Z,984.34
2023-04-20T00:05:59.806Z,984.34
2023-04-20T00:06:59.810Z,984.32
2023-04-20T00:07:59.784Z,984.29
2023-04-20T00:08:59.950Z,984.23
2023-04-20T00:09:59.906Z,984.27
2023-04-20T00:10:59.759Z,984.24
2023-04-20T00:11:59.738Z,984.27
2023-04-20T00:12:59.724Z,984.21
2023-04-20T00:13:59.701Z,984.24
2023-04-20T00:14:59.686Z,984.23
2023-04-20T00:15:59.705Z,984.14
2023-04-20T00:16:59.761Z,984.21
2023-04-20T00:17:59.703Z,984.12
2023-04-20T00:18:59.665Z,984.07
2023-04-20T00:19:59.733Z,984.13
2023-04-20T00:20:59.664Z,984.10
2023-04-20T00:21:59.632Z,984.11
2023-04-20T00:22:59.612Z,984.11
2023-04-20T00:23:59.621Z,984.13
2023-04-20T00:24:59.605Z,984.11
2023-04-20T00:25:59.586Z,984.08
2023-04-20T00:26:59.597Z,984.10
2023-04-20T00:27:59.596Z,984.07
2023-04-20T00:28:59.565Z,984.08
2023-04-20T00:29:59.560Z,984.02
2023-04-20T00:30:59.566Z,984.01
2023-04-20T00:31:59.544Z,983.96
2023-04-20T00:32:59.580Z,983.98
2023-04-20T00:33:59.595Z,983.97
2023-04-20T00:34:59.478Z,983.93
2023-04-20T00:35:59.475Z,983.92
2023-04-20T00:36:59.481Z,983.93
2023-04-20T00:37:59.439Z,983.92
2023-04-20T00:38:59.531Z,983.91
2023-04-20T00:39:59.450Z,983.91
2023-04-20T00:40:59.426Z,983.83
2023-04-20T00:41:59.417Z,983.86
2023-04-20T00:42:59.408Z,983.84
2023-04-20T00:43:59.392Z,983.82
2023-04-20T00:44:59.406Z,983.79
2023-04-20T00:45:59.397Z,983.83
2023-04-20T00:46:59.364Z,983.86
2023-04-20T00:47:59.437Z,983.82
2023-04-20T00:48:59.343Z,983.79
2023-04-20T00:49:59.327Z,983.74
2023-04-20T00:50:59.320Z,983.71
2023-04-20T00:51:59.329Z,983.72
2023-04-20T00:52:59.320Z,983.69
2023-04-20T00:53:59.308Z,983.71
2023-04-20T00:54:59.265Z,983.68
2023-04-20T00:55:59.264Z,983.70
2023-04-20T00:56:59.258Z,983.72
2023-04-20T00:57:59.262Z,983.72
2023-04-20T00:58:59.256Z,983.69
2023-04-20T00:59:59.210Z,983.63
2023-04-20T01:00:59.222Z,983.58
2023-04-20T01:01:59.580Z,983.56
2023-04-20T01:02:59.383Z,983.62
2023-04-20T01:03:59.311Z,983.61
2023-04-20T01:04:59.167Z,983.60
2023-04-20T01:05:59.164Z,983.62
2023-04-20T01:06:59.162Z,983.51
2023-04-20T01:07:59.138Z,983.54
2023-04-20T01:08:59.136Z,983.54
2023-04-20T01:09:59.115Z,983.54
2023-04-20T01:10:59.136Z,983.46
2023-04-20T01:11:59.090Z,983.51
2023-04-20T01:12:59.090Z,983.52
2023-04-20T01:13:59.078Z,983.47
2023-04-20T01:14:59.073Z,983.38
2023-04-20T01:15:59.088Z,983.38
2023-04-20T01:16:59.054Z,983.41
2023-04-20T01:17:59.086Z,983.32
2023-04-20T01:18:59.021Z,983.34
2023-04-20T01:19:59.008Z,983.35
2023-04-20T01:21:13.750Z,983.29
2023-04-20T01:21:58.990Z,983.27
2023-04-20T01:22:59.006Z,983.28
2023-04-20T01:23:59.014Z,983.29
2023-04-20T01:24:58.969Z,983.22
2023-04-20T01:25:58.968Z,983.21
2023-04-20T01:26:58.948Z,983.21
2023-04-20T01:27:58.943Z,983.21
2023-04-20T01:28:58.941Z,983.20
2023-04-20T01:29:58.995Z,983.22
2023-04-20T01:30:58.916Z,983.17
2023-04-20T01:31:58.931Z,983.16
2023-04-20T01:32:58.923Z,983.09
2023-04-20T01:33:58.937Z,983.13
2023-04-20T01:34:58.889Z,983.18
2023-04-20T01:35:58.865Z,983.16
2023-04-20T01:36:58.861Z,983.09
2023-04-20T01:37:58.848Z,983.09
2023-04-20T01:38:58.828Z,983.07
2023-04-20T01:39:58.869Z,983.08
2023-04-20T01:40:58.809Z,983.02
2023-04-20T01:41:58.790Z,982.98
2023-04-20T01:42:58.789Z,983.00
2023-04-20T01:43:58.781Z,983.01
2023-04-20T01:44:58.749Z,983.03
2023-04-20T01:45:58.760Z,983.02
2023-04-20T01:46:58.838Z,982.93
2023-04-20T01:47:58.773Z,982.98
2023-04-20T01:48:58.714Z,982.97
2023-04-20T01:49:58.723Z,982.92
2023-04-20T01:50:58.693Z,982.89
2023-04-20T01:51:58.675Z,982.88
2023-04-20T01:52:58.668Z,982.90
2023-04-20T01:53:58.667Z,982.92
2023-04-20T01:54:58.672Z,982.89
2023-04-20T01:55:58.650Z,982.85
2023-04-20T01:56:58.640Z,982.82
2023-04-20T01:57:58.613Z,982.82
2023-04-20T01:58:58.628Z,982.79
2023-04-20T01:59:58.598Z,982.81
2023-04-20T02:00:58.665Z,982.78
2023-04-20T02:01:58.687Z,982.81
2023-04-20T02:02:58.651Z,982.79
2023-04-20T02:03:58.704Z,982.80
2023-04-20T02:04:58.577Z,982.72
2023-04-20T02:05:58.531Z,982.69
2023-04-20T02:06:58.530Z,982.72
2023-04-20T02:07:58.515Z,982.74
2023-04-20T02:08:58.541Z,982.72
2023-04-20T02:09:58.516Z,982.69
2023-04-20T02:10:58.484Z,982.75
2023-04-20T02:11:58.469Z,982.70
2023-04-20T02:12:58.483Z,982.77
2023-04-20T02:13:58.475Z,982.79
2023-04-20T02:14:58.433Z,982.78
2023-04-20T02:15:58.414Z,982.80
2023-04-20T02:16:58.456Z,982.74
2023-04-20T02:17:58.437Z,982.77
2023-04-20T02:18:58.395Z,982.77
2023-04-20T02:19:58.401Z,982.83
2023-04-20T02:20:58.399Z,982.76
2023-04-20T02:21:58.368Z,982.76
2023-04-20T02:22:58.353Z,982.75
2023-04-20T02:23:58.327Z,982.70
2023-04-20T02:24:58.343Z,982.66
2023-04-20T02:25:58.312Z,982.69
2023-04-20T02:26:58.328Z,982.59
2023-04-20T02:27:58.294Z,982.60
2023-04-20T02:28:58.293Z,982.63
2023-04-20T02:29:58.269Z,982.69
2023-04-20T02:30:58.331Z,982.67
2023-04-20T02:31:58.254Z,982.67
2023-04-20T02:32:58.304Z,982.62
2023-04-20T02:33:58.248Z,982.57
2023-04-20T02:34:58.229Z,982.49
2023-04-20T02:35:58.209Z,982.55
2023-04-20T02:36:58.225Z,982.52
2023-04-20T02:37:58.213Z,982.54
2023-04-20T02:38:58.187Z,982.52
2023-04-20T02:39:58.180Z,982.51
2023-04-20T02:40:58.147Z,982.47
2023-04-20T02:41:58.137Z,982.49
2023-04-20T02:42:58.159Z,982.45
2023-04-20T02:43:58.126Z,982.45
2023-04-20T02:44:58.109Z,982.46
2023-04-20T02:45:58.157Z,982.46
2023-04-20T02:46:58.102Z,982.44
2023-04-20T02:47:58.099Z,982.48
2023-04-20T02:48:58.095Z,982.39
2023-04-20T02:49:58.079Z,982.43
2023-04-20T02:50:58.070Z,982.36
2023-04-20T02:51:58.045Z,982.38
2023-04-20T02:52:58.053Z,982.42
2023-04-20T02:53:58.032Z,982.41
2023-04-20T02:54:58.043Z,982.35
2023-04-20T02:55:58.001Z,982.34
2023-04-20T02:56:58.207Z,982.37
2023-04-20T02:57:57.978Z,982.39
2023-04-20T02:58:57.994Z,982.34
2023-04-20T02:59:57.955Z,982.34
2023-04-20T03:00:57.949Z,982.34
2023-04-20T03:01:58.008Z,982.37
2023-04-20T03:02:58.027Z,982.38
2023-04-20T03:03:58.115Z,982.37
2023-04-20T03:04:57.910Z,982.31
2023-04-20T03:05:57.899Z,982.35
2023-04-20T03:06:57.920Z,982.35
2023-04-20T03:07:57.892Z,982.41
2023-04-20T03:08:57.881Z,982.32
2023-04-20T03:09:57.875Z,982.37
2023-04-20T03:10:57.850Z,982.36
2023-04-20T03:11:57.851Z,982.33
2023-04-20T03:12:57.843Z,982.36
2023-04-20T03:13:57.826Z,982.35
2023-04-20T03:14:57.848Z,982.26
2023-04-20T03:15:57.823Z,982.28
2023-04-20T03:16:57.789Z,982.27
2023-04-20T03:17:57.808Z,982.30
2023-04-20T03:18:57.784Z,982.28
2023-04-20T03:19:57.753Z,982.31
2023-04-20T03:20:57.762Z,982.28
2023-04-20T03:21:57.745Z,982.31
2023-04-20T03:22:57.725Z,982.36
2023-04-20T03:23:57.691Z,982.25
2023-04-20T03:24:57.707Z,982.24
2023-04-20T03:25:57.696Z,982.26
2023-04-20T03:26:57.677Z,982.25
2023-04-20T03:27:57.683Z,982.22
2023-04-20T03:28:57.657Z,982.21
2023-04-20T03:29:57.654Z,982.26
2023-04-20T03:30:57.634Z,982.26
2023-04-20T03:31:57.662Z,982.21
2023-04-20T03:32:57.705Z,982.23
2023-04-20T03:33:57.616Z,982.16
2023-04-20T03:34:57.618Z,982.19
2023-04-20T03:35:57.599Z,982.22
2023-04-20T03:36:57.563Z,982.25
2023-04-20T03:37:57.574Z,982.18
2023-04-20T03:38:57.535Z,982.28
2023-04-20T03:39:57.548Z,982.26
2023-04-20T03:40:57.523Z,982.22
2023-04-20T03:41:57.582Z,982.25
2023-04-20T03:42:57.522Z,982.26
2023-04-20T03:43:57.575Z,982.26
2023-04-20T03:44:57.484Z,982.16
2023-04-20T03:45:57.509Z,982.15
2023-04-20T03:46:57.458Z,982.18
2023-04-20T03:47:57.471Z,982.13
2023-04-20T03:48:57.463Z,982.13
2023-04-20T03:49:57.435Z,982.18
2023-04-20T03:50:57.434Z,982.18
2023-04-20T03:51:57.437Z,982.16
2023-04-20T03:52:57.418Z,982.15
2023-04-20T03:53:57.400Z,982.13
2023-04-20T03:54:57.418Z,982.20
2023-04-20T03:55:57.376Z,982.17
2023-04-20T03:56:57.370Z,982.16
2023-04-20T03:57:57.355Z,982.19
2023-04-20T03:58:57.369Z,982.17
2023-04-20T03:59:57.357Z,982.22
2023-04-20T04:00:57.335Z,982.15
2023-04-20T04:01:57.430Z,982.10
2023-04-20T04:02:57.400Z,982.11
2023-04-20T04:03:57.455Z,982.07
2023-04-20T04:04:57.442Z,982.10
2023-04-20T04:05:57.261Z,982.06
2023-04-20T04:06:57.271Z,982.07
2023-04-20T04:07:57.241Z,982.11
2023-04-20T04:08:57.329Z,982.06
2023-04-20T04:09:57.268Z,982.08
2023-04-20T04:10:57.225Z,982.08
2023-04-20T04:11:57.210Z,982.08
2023-04-20T04:12:57.200Z,982.07
2023-04-20T04:13:57.199Z,982.07
2023-04-20T04:14:57.199Z,982.07
2023-04-20T04:15:57.178Z,982.10
2023-04-20T04:16:57.194Z,982.12
2023-04-20T04:17:57.180Z,982.14
2023-04-20T04:18:57.162Z,982.19
2023-04-20T04:19:57.143Z,982.14
2023-04-20T04:20:57.122Z,982.17
2023-04-20T04:21:57.109Z,982.23
2023-04-20T04:22:57.117Z,982.14
2023-04-20T04:23:57.084Z,982.17
2023-04-20T04:24:57.077Z,982.10
2023-04-20T04:25:57.086Z,982.15
2023-04-20T04:26:57.045Z,982.14
2023-04-20T04:27:57.051Z,982.22
2023-04-20T04:28:57.054Z,982.22
2023-04-20T04:29:57.012Z,982.20
2023-04-20T04:30:57.068Z,982.20
2023-04-20T04:31:57.003Z,982.14
2023-04-20T04:32:57.070Z,982.14
2023-04-20T04:33:57.003Z,982.14
2023-04-20T04:34:56.980Z,982.19
2023-04-20T04:35:57.036Z,982.18
2023-04-20T04:36:56.970Z,982.05
2023-04-20T04:37:56.940Z,982.12
2023-04-20T04:38:56.963Z,982.10
2023-04-20T04:39:56.926Z,982.05
2023-04-20T04:40:56.920Z,982.07
2023-04-20T04:41:56.913Z,982.16
2023-04-20T04:42:56.903Z,982.14
2023-04-20T04:43:56.872Z,982.21
2023-04-20T04:44:56.895Z,982.05
2023-04-20T04:45:56.885Z,982.11
2023-04-20T04:46:56.843Z,982.15
2023-04-20T04:47:56.889Z,982.03
2023-04-20T04:48:56.826Z,982.11
2023-04-20T04:49:56.825Z,982.06
2023-04-20T04:50:56.795Z,982.05
2023-04-20T04:51:56.820Z,982.06
2023-04-20T04:52:56.783Z,982.03
2023-04-20T04:53:56.771Z,982.05
2023-04-20T04:54:56.769Z,982.09
2023-04-20T04:55:56.756Z,982.08
2023-04-20T04:56:56.774Z,982.05
2023-04-20T04:57:56.740Z,982.05
2023-04-20T04:58:56.738Z,982.04
2023-04-20T04:59:56.735Z,982.02
2023-04-20T05:00:56.711Z,982.04
2023-04-20T05:01:56.747Z,982.10
2023-04-20T05:02:56.783Z,982.11
2023-04-20T05:03:56.857Z,982.11
2023-04-20T05:04:56.653Z,982.08
2023-04-20T05:05:56.648Z,982.11
2023-04-20T05:06:56.658Z,982.09
2023-04-20T05:07:56.667Z,982.02
2023-04-20T05:08:56.604Z,982.11
2023-04-20T05:09:56.619Z,982.02
2023-04-20T05:10:56.595Z,982.07
2023-04-20T05:11:56.590Z,982.05
2023-04-20T05:12:56.596Z,982.07
2023-04-20T05:13:56.581Z,982.19
2023-04-20T05:14:56.577Z,982.10
2023-04-20T05:15:56.584Z,982.15
2023-04-20T05:16:56.540Z,982.11
2023-04-20T05:17:56.552Z,982.11
2023-04-20T05:18:56.530Z,982.11
2023-04-20T05:19:56.532Z,982.10
2023-04-20T05:20:56.526Z,982.12
2023-04-20T05:21:56.511Z,982.14
2023-04-20T05:22:56.479Z,982.15
2023-04-20T05:23:56.483Z,982.21
2023-04-20T05:24:56.457Z,982.18
2023-04-20T05:25:56.461Z,982.10
2023-04-20T05:26:56.452Z,982.18
2023-04-20T05:27:56.431Z,982.15
2023-04-20T05:28:56.428Z,982.25
2023-04-20T05:29:58.417Z,982.23
2023-04-20T05:30:57.383Z,982.18
2023-04-20T05:31:56.402Z,982.23
2023-04-20T05:32:56.414Z,982.21
2023-04-20T05:33:56.374Z,982.21
2023-04-20T05:34:56.339Z,982.21
2023-04-20T05:35:56.330Z,982.23
2023-04-20T05:36:56.337Z,982.20
2023-04-20T05:37:56.345Z,982.25
2023-04-20T05:38:56.330Z,982.18
2023-04-20T05:39:56.309Z,982.21
2023-04-20T05:40:56.286Z,982.20
2023-04-20T05:41:56.295Z,982.23
2023-04-20T05:42:56.269Z,982.26
2023-04-20T05:43:56.251Z,982.20
2023-04-20T05:44:56.245Z,982.21
2023-04-20T05:45:56.295Z,982.24
2023-04-20T05:46:56.224Z,982.15
2023-04-20T05:47:56.280Z,982.18
2023-04-20T05:48:56.208Z,982.14
2023-04-20T05:49:56.190Z,982.13
2023-04-20T05:50:56.169Z,982.18
2023-04-20T05:51:56.209Z,982.17
2023-04-20T05:52:56.170Z,982.22
2023-04-20T05:53:56.156Z,982.21
2023-04-20T05:54:56.147Z,982.21
2023-04-20T05:55:56.178Z,982.14
2023-04-20T05:56:56.113Z,982.11
2023-04-20T05:57:56.121Z,982.07
2023-04-20T05:58:56.100Z,982.07
2023-04-20T05:59:56.160Z,982.09
2023-04-20T06:00:56.084Z,982.10
2023-04-20T06:01:56.156Z,982.13
2023-04-20T06:02:56.269Z,982.11
2023-04-20T06:03:56.283Z,982.13
2023-04-20T06:04:56.127Z,982.10
2023-04-20T06:05:56.036Z,982.10
2023-04-20T06:06:56.023Z,982.11
2023-04-20T06:07:56.016Z,982.15
2023-04-20T06:08:56.001Z,982.07
2023-04-20T06:09:56.014Z,982.06
2023-04-20T06:10:55.978Z,982.06
2023-04-20T06:11:55.965Z,982.09
2023-04-20T06:12:55.951Z,982.11
2023-04-20T06:13:55.946Z,982.10
2023-04-20T06:14:55.939Z,982.06
2023-04-20T06:15:55.966Z,982.09
2023-04-20T06:16:55.925Z,982.03
2023-04-20T06:17:55.960Z,982.02
2023-04-20T06:18:55.899Z,982.10
2023-04-20T06:19:55.887Z,982.10
2023-04-20T06:20:55.893Z,982.10
2023-04-20T06:21:55.870Z,982.14
2023-04-20T06:22:55.858Z,982.13
2023-04-20T06:23:55.860Z,982.10
2023-04-20T06:24:55.835Z,982.07
2023-04-20T06:25:55.822Z,982.10
2023-04-20T06:26:55.822Z,982.08
2023-04-20T06:27:55.811Z,982.07
2023-04-20T06:28:55.792Z,982.04
2023-04-20T06:29:55.774Z,982.06
2023-04-20T06:30:55.820Z,982.07
2023-04-20T06:31:55.764Z,982.04
2023-04-20T06:32:55.744Z,981.97
2023-04-20T06:33:55.749Z,982.03
2023-04-20T06:34:55.721Z,981.99
2023-04-20T06:35:55.699Z,982.04
2023-04-20T06:36:55.701Z,982.03
2023-04-20T06:37:55.685Z,982.03
2023-04-20T06:38:55.688Z,982.01
2023-04-20T06:39:55.654Z,982.00
2023-04-20T06:40:55.661Z,982.07
2023-04-20T06:41:55.671Z,982.06
2023-04-20T06:42:55.639Z,982.08
2023-04-20T06:43:55.655Z,982.03
2023-04-20T06:44:55.617Z,982.03
2023-04-20T06:45:55.605Z,982.06
2023-04-20T06:46:55.715Z,982.01
2023-04-20T06:47:55.597Z,981.96
2023-04-20T06:48:55.568Z,982.01
2023-04-20T06:49:55.554Z,982.00
2023-04-20T06:50:55.560Z,982.03
2023-04-20T06:51:55.549Z,982.02
2023-04-20T06:52:55.525Z,981.99
2023-04-20T06:53:55.537Z,981.98
2023-04-20T06:54:55.508Z,982.00
2023-04-20T06:55:55.616Z,982.00
2023-04-20T06:56:55.504Z,981.96
2023-04-20T06:57:55.478Z,981.94
2023-04-20T06:58:55.490Z,981.88
2023-04-20T06:59:55.463Z,981.88
2023-04-20T07:00:55.444Z,981.93
2023-04-20T07:01:55.530Z,981.92
2023-04-20T07:02:55.583Z,981.94
2023-04-20T07:03:55.619Z,981.86
2023-04-20T07:04:55.457Z,981.95
2023-04-20T07:05:55.396Z,981.93
2023-04-20T07:06:55.397Z,981.93
2023-04-20T07:07:55.369Z,981.89
2023-04-20T07:08:55.390Z,981.92
2023-04-20T07:09:55.345Z,981.90
2023-04-20T07:10:55.353Z,981.90
2023-04-20T07:11:55.319Z,981.88
2023-04-20T07:12:55.309Z,981.95
2023-04-20T07:13:55.316Z,981.91
2023-04-20T07:14:55.310Z,981.81
2023-04-20T07:15:55.342Z,981.88
2023-04-20T07:16:55.314Z,981.82
2023-04-20T07:17:55.386Z,981.85
2023-04-20T07:18:55.265Z,981.84
2023-04-20T07:19:55.259Z,981.86
2023-04-20T07:20:55.246Z,981.86
2023-04-20T07:21:55.229Z,981.84
2023-04-20T07:22:55.198Z,981.89
2023-04-20T07:23:55.200Z,981.79
2023-04-20T07:24:55.171Z,981.90
2023-04-20T07:25:55.202Z,981.77
2023-04-20T07:26:55.152Z,981.75
2023-04-20T07:27:55.143Z,981.74
2023-04-20T07:28:55.147Z,981.73
2023-04-20T07:29:55.132Z,981.67
2023-04-20T07:30:55.137Z,981.78
2023-04-20T07:31:55.172Z,981.75
2023-04-20T07:32:55.144Z,981.73
2023-04-20T07:33:55.089Z,981.81
2023-04-20T07:34:55.096Z,981.77
2023-04-20T07:35:55.063Z,981.79
2023-04-20T07:36:55.076Z,981.71
2023-04-20T07:37:55.051Z,981.77
2023-04-20T07:38:55.041Z,981.74
2023-04-20T07:39:55.037Z,981.81
2023-04-20T07:40:55.021Z,981.75
2023-04-20T07:41:55.029Z,981.78
2023-04-20T07:42:54.998Z,981.71
2023-04-20T07:43:54.995Z,981.74
2023-04-20T07:44:54.966Z,981.74
2023-04-20T07:45:54.985Z,981.74
2023-04-20T07:46:54.953Z,981.63
2023-04-20T07:47:54.998Z,981.64
2023-04-20T07:48:54.953Z,981.69
2023-04-20T07:49:54.950Z,981.67
2023-04-20T07:50:54.916Z,981.72
2023-04-20T07:52:03.188Z,981.72
2023-04-20T07:52:55.902Z,981.66
2023-04-20T07:53:54.881Z,981.71
2023-04-20T07:54:54.878Z,981.70
2023-04-20T07:55:54.864Z,981.70
2023-04-20T07:56:54.875Z,981.69
2023-04-20T07:57:54.842Z,981.75
2023-04-20T07:58:54.847Z,981.70
2023-04-20T07:59:54.815Z,981.73
2023-04-20T08:00:54.839Z,981.70
2023-04-20T08:01:56.289Z,981.71
2023-04-20T08:02:54.966Z,981.66
2023-04-20T08:03:55.035Z,981.68
2023-04-20T08:04:55.035Z,981.68
2023-04-20T08:05:54.814Z,981.67
2023-04-20T08:06:54.746Z,981.70
2023-04-20T08:07:54.760Z,981.66
2023-04-20T08:08:54.720Z,981.73
2023-04-20T08:09:54.707Z,981.73
2023-04-20T08:10:54.721Z,981.78
2023-04-20T08:11:54.711Z,981.74
2023-04-20T08:12:54.675Z,981.73
2023-04-20T08:13:56.683Z,981.59
2023-04-20T08:14:54.647Z,981.69
2023-04-20T08:15:54.695Z,981.64
2023-04-20T08:16:54.649Z,981.66
2023-04-20T08:17:54.673Z,981.63
2023-04-20T08:18:54.637Z,981.62
2023-04-20T08:19:54.622Z,981.69
2023-04-20T08:20:54.589Z,981.61
2023-04-20T08:21:54.594Z,981.58
2023-04-20T08:22:54.579Z,981.61
2023-04-20T08:23:54.580Z,981.54
2023-04-20T08:24:54.554Z,981.62
2023-04-20T08:25:54.540Z,981.58
2023-04-20T08:26:54.528Z,981.63
2023-04-20T08:27:54.522Z,981.63
2023-04-20T08:28:54.512Z,981.63
2023-04-20T08:29:54.497Z,981.66
2023-04-20T08:30:54.486Z,981.62
2023-04-20T08:31:54.558Z,981.64
2023-04-20T08:32:54.534Z,981.58
2023-04-20T08:33:54.482Z,981.58
2023-04-20T08:34:54.430Z,981.64
2023-04-20T08:35:54.437Z,981.60
2023-04-20T08:36:54.418Z,981.57
2023-04-20T08:37:54.434Z,981.64
2023-04-20T08:38:54.386Z,981.56
2023-04-20T08:39:54.451Z,981.53
2023-04-20T08:40:54.377Z,981.56
2023-04-20T08:41:54.378Z,981.54
2023-04-20T08:42:54.379Z,981.58
2023-04-20T08:43:54.351Z,981.54
2023-04-20T08:44:54.349Z,981.61
2023-04-20T08:45:54.339Z,981.60
2023-04-20T08:46:54.453Z,981.54
2023-04-20T08:47:54.373Z,981.51
2023-04-20T08:48:54.288Z,981.57
2023-04-20T08:49:54.317Z,981.60
2023-04-20T08:50:54.295Z,981.58
2023-04-20T08:51:54.270Z,981.55
2023-04-20T08:52:54.279Z,981.56
2023-04-20T08:53:54.247Z,981.56
2023-04-20T08:54:57.362Z,981.58
2023-04-20T08:55:54.234Z,981.53
2023-04-20T08:56:54.242Z,981.59
2023-04-20T08:57:54.201Z,981.55
2023-04-20T08:58:54.193Z,981.47
2023-04-20T08:59:54.170Z,981.55
2023-04-20T09:00:54.171Z,981.56
2023-04-20T09:01:54.264Z,981.51
2023-04-20T09:02:54.225Z,981.52
2023-04-20T09:03:54.379Z,981.54
2023-04-20T09:04:54.252Z,981.56
2023-04-20T09:05:54.155Z,981.57
2023-04-20T09:06:54.136Z,981.53
2023-04-20T09:07:54.090Z,981.54
2023-04-20T09:08:54.112Z,981.54
2023-04-20T09:09:54.116Z,981.56
2023-04-20T09:10:54.081Z,981.58
2023-04-20T09:11:54.181Z,981.53
2023-04-20T09:12:54.047Z,981.56
2023-04-20T09:13:54.068Z,981.49
2023-04-20T09:14:54.040Z,981.55
2023-04-20T09:15:54.021Z,981.54
2023-04-20T09:16:54.206Z,981.50
2023-04-20T09:17:54.057Z,981.50
2023-04-20T09:18:53.960Z,981.56
2023-04-20T09:19:53.973Z,981.52
2023-04-20T09:20:53.960Z,981.51
2023-04-20T09:21:53.953Z,981.54
2023-04-20T09:22:53.943Z,981.51
2023-04-20T09:23:53.906Z,981.47
2023-04-20T09:24:53.919Z,981.53
2023-04-20T09:25:53.906Z,981.51
2023-04-20T09:26:53.881Z,981.48
2023-04-20T09:27:53.893Z,981.48
2023-04-20T09:28:53.871Z,981.40
2023-04-20T09:29:53.848Z,981.48
2023-04-20T09:30:53.852Z,981.43
2023-04-20T09:31:53.903Z,981.44
2023-04-20T09:32:53.837Z,981.39
2023-04-20T09:33:53.815Z,981.46
2023-04-20T09:34:53.805Z,981.35
2023-04-20T09:35:53.805Z,981.37
2023-04-20T09:36:53.784Z,981.36
2023-04-20T09:37:53.752Z,981.33
2023-04-20T09:38:53.763Z,981.36
2023-04-20T09:39:53.768Z,981.34
2023-04-20T09:40:53.751Z,981.38
2023-04-20T09:41:53.733Z,981.40
2023-04-20T09:42:53.713Z,981.30
2023-04-20T09:43:53.724Z,981.30
2023-04-20T09:44:53.695Z,981.28
2023-04-20T09:45:53.748Z,981.30
2023-04-20T09:46:53.682Z,981.31
2023-04-20T09:47:53.688Z,981.33
2023-04-20T09:48:53.648Z,981.22
2023-04-20T09:49:53.651Z,981.26
2023-04-20T09:50:53.639Z,981.32
2023-04-20T09:51:53.621Z,981.29
2023-04-20T09:52:53.612Z,981.35
2023-04-20T09:53:53.592Z,981.28
2023-04-20T09:54:53.594Z,981.36
2023-04-20T09:55:53.570Z,981.30
2023-04-20T09:56:53.572Z,981.28
2023-04-20T09:57:53.541Z,981.35
2023-04-20T09:58:53.558Z,981.35
2023-04-20T09:59:53.533Z,981.37
2023-04-20T10:00:53.566Z,981.40
2023-04-20T10:01:53.523Z,981.34
2023-04-20T10:02:53.628Z,981.35
2023-04-20T10:03:53.720Z,981.34
2023-04-20T10:04:53.500Z,981.26
2023-04-20T10:05:53.613Z,981.35
2023-04-20T10:06:53.466Z,981.29
2023-04-20T10:07:53.444Z,981.25
2023-04-20T10:08:53.444Z,981.29
2023-04-20T10:09:53.444Z,981.23
2023-04-20T10:10:53.423Z,981.31
2023-04-20T10:11:55.154Z,981.29
2023-04-20T10:12:53.445Z,981.20
2023-04-20T10:13:53.398Z,981.20
2023-04-20T10:14:53.387Z,981.22
2023-04-20T10:15:53.378Z,981.22
2023-04-20T10:16:53.375Z,981.20
2023-04-20T10:17:53.487Z,981.15
2023-04-20T10:18:53.454Z,981.18
2023-04-20T10:19:53.320Z,981.17
2023-04-20T10:20:53.315Z,981.15
2023-04-20T10:21:53.301Z,981.12
2023-04-20T10:22:53.313Z,981.13
2023-04-20T10:23:53.268Z,981.12
2023-04-20T10:24:53.297Z,981.12
2023-04-20T10:25:53.290Z,981.12
2023-04-20T10:26:53.246Z,981.04
2023-04-20T10:27:53.235Z,981.02
2023-04-20T10:28:53.230Z,981.07
2023-04-20T10:29:53.212Z,981.08
2023-04-20T10:30:53.412Z,981.07
2023-04-20T10:31:53.186Z,981.10
2023-04-20T10:32:53.210Z,981.11
2023-04-20T10:33:53.196Z,981.10
2023-04-20T10:34:53.178Z,981.08
2023-04-20T10:35:53.209Z,981.11
2023-04-20T10:36:53.143Z,981.05
2023-04-20T10:37:53.175Z,981.05
2023-04-20T10:38:53.130Z,981.03
2023-04-20T10:39:53.099Z,981.02
2023-04-20T10:40:53.088Z,981.03
2023-04-20T10:41:53.113Z,981.05
2023-04-20T10:42:53.085Z,981.00
2023-04-20T10:43:53.071Z,980.99
2023-04-20T10:44:53.051Z,980.92
2023-04-20T10:45:53.059Z,980.90
2023-04-20T10:46:53.197Z,980.99
2023-04-20T10:47:53.059Z,980.94
2023-04-20T10:48:53.008Z,980.96
2023-04-20T10:49:53.009Z,980.96
2023-04-20T10:50:53.016Z,980.88
2023-04-20T10:51:54.435Z,980.84
2023-04-20T10:52:52.994Z,980.78
2023-04-20T10:53:52.944Z,980.85
2023-04-20T10:54:52.964Z,980.78
2023-04-20T10:55:52.937Z,980.80
2023-04-20T10:56:52.934Z,980.76
2023-04-20T10:57:52.935Z,980.72
2023-04-20T10:58:52.898Z,980.63
2023-04-20T10:59:52.882Z,980.60
2023-04-20T11:00:52.880Z,980.55
2023-04-20T11:01:52.910Z,980.51
2023-04-20T11:02:52.997Z,980.54
2023-04-20T11:03:52.896Z,980.47
2023-04-20T11:04:52.873Z,980.43
2023-04-20T11:05:52.845Z,980.46
2023-04-20T11:06:52.846Z,980.51
2023-04-20T11:07:52.826Z,980.50
2023-04-20T11:08:52.808Z,980.50
2023-04-20T11:09:52.793Z,980.49
2023-04-20T11:10:52.800Z,980.48
2023-04-20T11:11:52.778Z,980.45
2023-04-20T11:12:52.752Z,980.50
2023-04-20T11:13:52.746Z,980.53
2023-04-20T11:14:52.725Z,980.44
2023-04-20T11:15:52.787Z,980.41
2023-04-20T11:16:52.808Z,980.43
2023-04-20T11:17:52.762Z,980.43
2023-04-20T11:18:52.723Z,980.48
2023-04-20T11:19:52.683Z,980.47
2023-04-20T11:20:52.684Z,980.41
2023-04-20T11:21:52.701Z,980.43
2023-04-20T11:22:54.434Z,980.40
2023-04-20T11:23:52.648Z,980.42
2023-04-20T11:24:52.638Z,980.34
2023-04-20T11:25:52.628Z,980.41
2023-04-20T11:26:52.649Z,980.37
2023-04-20T11:27:52.594Z,980.32
2023-04-20T11:28:54.390Z,980.31
2023-04-20T11:29:52.589Z,980.33
2023-04-20T11:30:52.572Z,980.25
2023-04-20T11:31:52.679Z,980.31
2023-04-20T11:32:52.647Z,980.31
2023-04-20T11:33:52.641Z,980.25
2023-04-20T11:34:56.057Z,980.29
2023-04-20T11:35:53.504Z,980.33
2023-04-20T11:36:52.528Z,980.35
2023-04-20T11:37:52.499Z,980.39
2023-04-20T11:38:52.488Z,980.32
2023-04-20T11:39:52.486Z,980.42
2023-04-20T11:40:52.465Z,980.38
2023-04-20T11:41:52.452Z,980.42
2023-04-20T11:42:52.448Z,980.48
2023-04-20T11:43:52.436Z,980.49
2023-04-20T11:44:52.432Z,980.49
2023-04-20T11:45:52.420Z,980.46
2023-04-20T11:46:52.402Z,980.45
2023-04-20T11:47:52.423Z,980.45
2023-04-20T11:48:52.405Z,980.47
2023-04-20T11:49:52.362Z,980.45
2023-04-20T11:50:52.371Z,980.45
2023-04-20T11:51:52.361Z,980.46
2023-04-20T11:52:52.323Z,980.41
2023-04-20T11:53:52.322Z,980.45
2023-04-20T11:54:52.322Z,980.43
2023-04-20T11:55:52.316Z,980.44
2023-04-20T11:56:52.294Z,980.46
2023-04-20T11:57:52.303Z,980.52
2023-04-20T11:58:52.267Z,980.56
2023-04-20T11:59:52.319Z,980.53
2023-04-20T12:00:52.261Z,980.53
2023-04-20T12:01:52.273Z,980.57
2023-04-20T12:02:52.365Z,980.59
2023-04-20T12:03:52.518Z,980.50
2023-04-20T12:04:52.322Z,980.49
2023-04-20T12:05:52.254Z,980.55
2023-04-20T12:06:52.193Z,980.54
2023-04-20T12:07:52.186Z,980.47
2023-04-20T12:08:52.165Z,980.48
2023-04-20T12:09:52.181Z,980.51
2023-04-20T12:10:52.213Z,980.42
2023-04-20T12:11:52.120Z,980.41
2023-04-20T12:12:52.125Z,980.43
2023-04-20T12:13:52.098Z,980.43
2023-04-20T12:14:52.101Z,980.42
2023-04-20T12:15:52.126Z,980.40
2023-04-20T12:16:52.076Z,980.42
2023-04-20T12:17:52.217Z,980.39
2023-04-20T12:18:52.046Z,980.44
2023-04-20T12:19:52.066Z,980.32
2023-04-20T12:20:52.060Z,980.33
2023-04-20T12:21:52.024Z,980.32
2023-04-20T12:22:52.006Z,980.25
2023-04-20T12:23:52.012Z,980.30
2023-04-20T12:24:52.016Z,980.25
2023-04-20T12:25:52.002Z,980.22
2023-04-20T12:26:51.978Z,980.18
2023-04-20T12:27:51.965Z,980.21
2023-04-20T12:28:51.955Z,980.23